Time;durP1;ratioP1;P1;durP2;ratioP2;P2;SDS_P1;SDS_P2;PMS_P1;PMS_P2;Temp;Humidity;BMP_temperature;BMP_pressure;BME280_temperature;BME280_humidity;BME280_pressure;Samples;Min_cycle;Max_cycle;Signal;HPM_P1;HPM_P2
2023/01/13 00:01:18;;;;;;;33.17;4.90;;;;;;;;;;5066316;28;20172;-64
2023/01/13 00:03:45;;;;;;;29.88;5.32;;;;;;;;;;5047562;28;20411;-63
2023/01/13 00:06:16;;;;;;;27.13;5.95;;;;;;;;;;5066567;28;20040;-64
2023/01/13 00:08:42;;;;;;;25.92;5.22;;;;;;;;;;5047971;28;20036;-63
2023/01/13 00:11:09;;;;;;;25.48;6.00;;;;;;;;;;5066341;28;20044;-63
2023/01/13 00:13:36;;;;;;;37.35;5.75;;;;;;;;;;5066093;28;20072;-63
2023/01/13 00:16:04;;;;;;;22.15;4.85;;;;;;;;;;5052535;28;20041;-64
2023/01/13 00:18:30;;;;;;;31.02;5.55;;;;;;;;;;5066239;28;20452;-63
2023/01/13 00:21:00;;;;;;;32.30;5.10;;;;;;;;;;5047757;28;20055;-63
2023/01/13 00:23:27;;;;;;;35.85;6.72;;;9.10;99.90;;;;;;5048071;28;20056;-63
2023/01/13 00:25:54;;;;;;;20.70;5.35;;;;;;;;;;5066137;28;20050;-63
2023/01/13 00:28:20;;;;;;;29.77;5.95;;;;;;;;;;5048261;28;20040;-63
2023/01/13 00:30:46;;;;;;;38.17;6.22;;;;;;;;;;5065992;28;20501;-63
2023/01/13 00:33:12;;;;;;;31.02;5.07;;;;;;;;;;5047845;28;20055;-63
2023/01/13 00:35:38;;;;;;;30.60;6.57;;;;;;;;;;5066321;28;20052;-63
2023/01/13 00:38:04;;;;;;;34.22;5.82;;;;;;;;;;5066165;28;20040;-64
2023/01/13 00:40:30;;;;;;;33.65;5.68;;;;;;;;;;5066077;28;20429;-63
2023/01/13 00:45:43;;;;;;;38.40;6.80;;;;;;;;;;5066900;28;20127;-63
2023/01/13 00:48:09;;;;;;;36.03;6.68;;;;;;;;;;5048501;28;20598;-64
2023/01/13 00:50:35;;;;;;;40.03;5.75;;;;;;;;;;5048610;28;20297;-63
2023/01/13 00:53:01;;;;;;;40.17;6.50;;;;;;;;;;5066606;28;20048;-63
2023/01/13 00:55:30;;;;;;;40.40;6.90;;;;;;;;;;5048442;28;20179;-63
2023/01/13 00:58:02;;;;;;;47.08;7.53;;;;;;;;;;5066664;28;20064;-64
2023/01/13 01:00:28;;;;;;;36.60;5.43;;;;;;;;;;5048514;28;20359;-63
2023/01/13 01:02:54;;;;;;;36.58;7.43;;;;;;;;;;5066740;28;20045;-63
2023/01/13 01:05:20;;;;;;;36.00;6.95;;;;;;;;;;5066415;28;20043;-63
2023/01/13 01:07:46;;;;;;;36.58;6.78;;;;;;;;;;5066431;28;20036;-63
2023/01/13 01:10:12;;;;;;;27.40;6.45;;;;;;;;;;5066313;28;20047;-64
2023/01/13 01:12:38;;;;;;;28.90;6.13;;;;;;;;;;5048372;28;20050;-63
2023/01/13 01:15:06;;;;;;;37.67;7.97;;;;;;;;;;5048815;28;20129;-64
2023/01/13 01:17:32;;;;;;;31.73;6.07;;;;;;;;;;5051559;28;20052;-64
2023/01/13 01:19:58;;;;;;;36.83;6.93;;;;;;;;;;5069616;28;20032;-63
2023/01/13 01:22:24;;;;;;;23.52;5.25;;;;;;;;;;5051751;28;20517;-64
2023/01/13 01:24:50;;;;;;;33.67;6.47;;;;;;;;;;5052029;28;20044;-63
2023/01/13 01:27:16;;;;;;;36.05;5.28;;;;;;;;;;5051207;28;20390;-64
2023/01/13 01:29:42;;;;;;;24.30;5.22;;;;;;;;;;5056401;28;20062;-63
2023/01/13 01:32:07;;;;;;;25.80;5.13;;;8.70;99.90;;;;;;5069886;28;20048;-64
2023/01/13 01:34:34;;;;;;;31.42;5.38;;;;;;;;;;5069713;28;20059;-63
2023/01/13 01:37:00;;;;;;;27.05;4.50;;;;;;;;;;5051632;28;20044;-63
2023/01/13 01:39:26;;;;;;;26.05;6.72;;;;;;;;;;5069351;28;20063;-63
2023/01/13 01:44:49;;;;;;;30.60;6.22;;;8.40;99.90;;;;;;5050627;28;20641;-63
2023/01/13 01:47:17;;;;;;;30.42;5.63;;;;;;;;;;5069367;28;20052;-63
2023/01/13 01:49:44;;;;;;;31.92;5.10;;;8.50;99.90;;;;;;5051062;28;20087;-63
2023/01/13 01:52:12;;;;;;;24.55;5.20;;;;;;;;;;5069164;28;20431;-63
2023/01/13 01:54:44;;;;;;;35.95;5.30;;;;;;;;;;5051028;28;20056;-63
2023/01/13 01:57:17;;;;;;;35.58;9.13;;;8.70;99.90;;;;;;5050916;28;20058;-63
2023/01/13 01:59:43;;;;;;;34.88;5.88;;;8.80;99.90;;;;;;5068941;28;20094;-64
2023/01/13 02:02:09;;;;;;;33.55;5.97;;;;;;;;;;5050599;28;20036;-63
2023/01/13 02:04:39;;;;;;;25.92;5.38;;;8.80;99.90;;;;;;5050860;28;20071;-63
2023/01/13 02:07:05;;;;;;;35.40;7.25;;;;;;;;;;5068800;28;20090;-63
2023/01/13 02:09:32;;;;;;;33.95;6.00;;;;;;;;;;5068789;28;20041;-63
2023/01/13 02:14:43;;;;;;;26.98;5.53;;;;;;;;;;5037441;28;20040;-63
2023/01/13 02:17:21;;;;;;;29.90;7.07;;;;;;;;;;5068429;28;20047;-63
2023/01/13 02:20:31;;;;;;;33.05;5.88;;;8.70;99.90;;;;;;5032018;28;20036;-64
2023/01/13 02:23:03;;;;;;;31.15;6.32;;;;;;;;;;5012845;28;20138;-63
2023/01/13 02:25:40;;;;;;;33.67;5.57;;;;;;;;;;5050219;28;20079;-63
2023/01/13 02:28:26;;;;;;;32.83;5.80;;;;;;;;;;5049880;28;20595;-63
2023/01/13 02:34:14;;;;;;;33.65;5.43;;;8.60;99.90;;;;;;5049847;28;20547;-63
2023/01/13 02:36:48;;;;;;;32.35;5.00;;;;;;;;;;5068156;28;20415;-63
2023/01/13 02:39:23;;;;;;;28.85;7.45;;;;;;;;;;5067882;28;20044;-63
2023/01/13 02:44:51;;;;;;;33.03;5.00;;;;;;;;;;5049638;28;20051;-63
2023/01/13 02:47:21;;;;;;;24.33;5.38;;;;;;;;;;5067932;28;20045;-63
2023/01/13 02:50:07;;;;;;;30.00;5.25;;;9.00;99.90;;;;;;5049752;28;20063;-63
2023/01/13 02:52:36;;;;;;;31.45;5.47;;;;;;;;;;5049656;28;20044;-63
2023/01/13 02:55:05;;;;;;;37.97;7.55;;;;;;;;;;5033377;28;20044;-63
2023/01/13 02:57:32;;;;;;;20.83;5.00;;;;;;;;;;5049672;28;20453;-63
2023/01/13 02:59:58;;;;;;;28.55;6.28;;;;;;;;;;5049513;28;20049;-63
2023/01/13 03:02:25;;;;;;;32.22;6.68;;;;;;;;;;5067667;28;20069;-63
2023/01/13 03:05:00;;;;;;;29.52;4.25;;;;;;;;;;5049791;28;20436;-63
2023/01/13 03:07:40;;;;;;;38.63;6.88;;;;;;;;;;5049640;28;20120;-63
2023/01/13 03:10:12;;;;;;;27.77;5.20;;;;;;;;;;5067753;28;20927;-63
2023/01/13 03:12:57;;;;;;;26.27;6.38;;;;;;;;;;5049261;28;20083;-63
2023/01/13 03:15:27;;;;;;;37.55;5.80;;;;;;;;;;5067374;28;20079;-63
2023/01/13 03:17:58;;;;;;;33.17;5.75;;;;;;;;;;5067448;28;20044;-63
2023/01/13 03:20:26;;;;;;;25.63;6.30;;;;;;;;;;5049321;28;20136;-63
2023/01/13 03:22:57;;;;;;;40.78;7.22;;;;;;;;;;5067136;28;20036;-63
2023/01/13 03:25:29;;;;;;;26.35;5.55;;;;;;;;;;5067507;28;20047;-63
2023/01/13 03:27:57;;;;;;;38.92;6.07;;;8.80;99.90;;;;;;5067201;28;20064;-63
2023/01/13 03:30:28;;;;;;;34.53;6.50;;;;;;;;;;5049235;28;20101;-63
2023/01/13 03:32:56;;;;;;;31.83;6.50;;;;;;;;;;5048859;28;20060;-63
2023/01/13 03:35:27;;;;;;;26.65;5.00;;;8.80;99.90;;;;;;5049359;28;20391;-63
2023/01/13 03:38:03;;;;;;;31.90;5.88;;;;;;;;;;5049041;28;20114;-66
2023/01/13 03:40:31;;;;;;;29.90;6.70;;;;;;;;;;5066353;28;20127;-63
2023/01/13 03:45:54;;;;;;;34.67;5.82;;;;;;;;;;5067183;28;20048;-64
2023/01/13 03:48:21;;;;;;;34.47;5.18;;;;;;;;;;5048832;28;20143;-63
2023/01/13 03:50:49;;;;;;;36.75;4.90;;;;;;;;;;5067182;28;20202;-63
2023/01/13 03:53:32;;;;;;;33.85;5.82;;;;;;;;;;5066903;28;20059;-63
2023/01/13 03:56:02;;;;;;;32.50;5.53;;;;;;;;;;5067220;28;20048;-63
2023/01/13 03:58:40;;;;;;;41.72;7.45;;;8.80;99.90;;;;;;5066951;28;20066;-63
2023/01/13 04:01:15;;;;;;;35.47;5.38;;;;;;;;;;5048853;28;20059;-63
2023/01/13 04:03:44;;;;;;;34.15;5.72;;;;;;;;;;5066468;28;20853;-63
2023/01/13 04:06:16;;;;;;;26.23;5.25;;;;;;;;;;5066841;28;20048;-63
2023/01/13 04:09:16;;;;;;;30.85;6.55;;;8.70;99.90;;;;;;5066819;28;20148;-63
2023/01/13 04:12:06;;;;;;;29.90;5.50;;;;;;;;;;5027758;28;20058;-63
2023/01/13 04:14:32;;;;;;;35.35;6.50;;;;;;;;;;5029998;28;20066;-63
2023/01/13 04:16:58;;;;;;;31.52;5.97;;;;;;;;;;5066372;28;20118;-63
2023/01/13 04:19:24;;;;;;;33.22;7.20;;;;;;;;;;5066434;28;20050;-63
2023/01/13 04:21:50;;;;;;;26.88;5.85;;;;;;;;;;5048610;28;20037;-63
2023/01/13 04:24:16;;;;;;;40.42;5.85;;;;;;;;;;5031610;28;20041;-63
2023/01/13 04:26:42;;;;;;;35.30;5.82;;;;;;;;;;5066471;28;20054;-63
2023/01/13 04:29:09;;;;;;;29.33;5.43;;;;;;;;;;5066545;28;20113;-63
2023/01/13 04:31:37;;;;;;;28.05;5.10;;;;;;;;;;5066757;28;20540;-64
2023/01/13 04:34:02;;;;;;;37.00;6.93;;;8.10;99.90;;;;;;5066461;28;20052;-63
2023/01/13 04:36:28;;;;;;;33.53;5.80;;;;;;;;;;5048601;28;20491;-63
2023/01/13 04:38:54;;;;;;;29.42;5.75;;;8.30;99.90;;;;;;5066791;28;20044;-63
2023/01/13 04:41:20;;;;;;;28.42;5.93;;;;;;;;;;5048025;28;20712;-63
2023/01/13 04:43:46;;;;;;;32.72;5.70;;;;;;;;;;5048277;28;20044;-63
2023/01/13 04:46:12;;;;;;;43.35;5.93;;;;;;;;;;5048283;28;20569;-63
2023/01/13 04:48:38;;;;;;;33.55;5.45;;;;;;;;;;5066368;28;20179;-63
2023/01/13 04:51:04;;;;;;;27.60;5.45;;;;;;;;;;5068503;28;20048;-63
2023/01/13 04:53:30;;;;;;;26.67;4.97;;;;;;;;;;5069842;28;20124;-63
2023/01/13 04:55:55;;;;;;;25.02;5.63;;;;;;;;;;5069861;28;20166;-63
2023/01/13 04:58:21;;;;;;;31.63;5.68;;;;;;;;;;5051802;28;20047;-63
2023/01/13 05:00:49;;;;;;;37.45;6.15;;;;;;;;;;5069937;28;20501;-63
2023/01/13 05:03:15;;;;;;;32.15;6.82;;;;;;;;;;5052100;28;20097;-63
2023/01/13 05:05:41;;;;;;;27.33;5.00;;;;;;;;;;5051589;28;20044;-63
2023/01/13 05:08:07;;;;;;;35.42;8.10;;;;;;;;;;5051308;28;20040;-63
2023/01/13 05:10:33;;;;;;;29.00;5.68;;;;;;;;;;5069643;28;20055;-63
2023/01/13 05:18:30;;;;;;;37.33;6.57;;;;;;;;;;5051361;28;20044;-63
2023/01/13 05:20:56;;;;;;;29.60;5.93;;;;;;;;;;5050636;28;20483;-63
2023/01/13 05:26:07;;;;;;;34.13;4.95;;;;;;;;;;5051191;28;20052;-63
2023/01/13 05:28:33;;;;;;;30.20;5.22;;;;;;;;;;5069340;28;20631;-63
2023/01/13 05:30:59;;;;;;;32.58;5.03;;;;;;;;;;5069112;28;20411;-63
2023/01/13 05:33:25;;;;;;;28.55;5.43;;;;;;;;;;5047955;28;20060;-63
2023/01/13 05:35:51;;;;;;;30.95;4.65;;;;;;;;;;5047951;28;20548;-63
2023/01/13 05:38:17;;;;;;;27.27;5.30;;;;;;;;;;5048081;28;20061;-63
2023/01/13 05:43:28;;;;;;;37.88;5.35;;;;;;;;;;5036021;28;20048;-63
2023/01/13 05:45:58;;;;;;;38.13;5.28;;;;;;;;;;5048941;28;20037;-63
2023/01/13 05:48:27;;;;;;;35.25;5.55;;;;;;;;;;5048869;28;20041;-63
2023/01/13 05:50:53;;;;;;;36.67;5.22;;;;;;;;;;5047575;28;20055;-63
2023/01/13 05:53:19;;;;;;;42.35;6.45;;;8.20;99.90;;;;;;5046990;28;20052;-63
2023/01/13 05:55:46;;;;;;;23.45;4.18;;;;;;;;;;5046572;28;20063;-63
2023/01/13 05:58:16;;;;;;;25.10;5.30;;;;;;;;;;5040855;28;20052;-63
2023/01/13 06:00:42;;;;;;;32.20;7.05;;;;;;;;;;5034683;28;20048;-63
2023/01/13 06:03:08;;;;;;;26.50;4.47;;;;;;;;;;5029950;28;20049;-63
2023/01/13 06:05:34;;;;;;;26.35;5.95;;;;;;;;;;5048752;28;20112;-63
2023/01/13 06:08:01;;;;;;;20.73;4.05;;;;;;;;;;5047553;28;20554;-63
2023/01/13 06:10:28;;;;;;;18.52;4.63;;;;;;;;;;5048340;28;20511;-63
2023/01/13 06:12:54;;;;;;;20.58;3.72;;;;;;;;;;5046994;28;20446;-63
2023/01/13 06:15:20;;;;;;;22.95;4.80;;;8.40;99.90;;;;;;5046666;28;20041;-63
2023/01/13 06:17:46;;;;;;;23.55;5.00;;;;;;;;;;5045218;28;20447;-64
2023/01/13 06:20:13;;;;;;;24.85;4.32;;;;;;;;;;5044239;28;20084;-64
2023/01/13 06:22:41;;;;;;;29.25;5.18;;;8.30;99.90;;;;;;5031055;28;20498;-64
2023/01/13 06:25:30;;;;;;;22.38;4.82;;;8.20;99.90;;;;;;5045388;28;20045;-64
2023/01/13 06:27:56;;;;;;;22.33;3.53;;;;;;;;;;4997272;28;20405;-63
2023/01/13 06:30:22;;;;;;;22.65;3.97;;;;;;;;;;5038046;28;20074;-63
2023/01/13 06:32:51;;;;;;;16.08;3.75;;;;;;;;;;5043901;28;20530;-63
2023/01/13 06:35:20;;;;;;;20.30;3.85;;;;;;;;;;5047453;28;20094;-63
2023/01/13 06:37:49;;;;;;;18.90;3.63;;;;;;;;;;5044397;28;20045;-63
2023/01/13 06:40:16;;;;;;;19.77;3.80;;;;;;;;;;5046134;28;20446;-63
2023/01/13 06:45:27;;;;;;;20.02;3.63;;;;;;;;;;5045337;28;20483;-63
2023/01/13 06:47:53;;;;;;;20.10;3.92;;;;;;;;;;5043674;28;20049;-63
2023/01/13 06:50:19;;;;;;;17.38;3.42;;;;;;;;;;5044342;28;20565;-63
2023/01/13 06:52:45;;;;;;;16.98;3.13;;;;;;;;;;5044550;28;20380;-63
2023/01/13 06:55:11;;;;;;;16.73;3.50;;;8.30;99.90;;;;;;5046170;28;20095;-63
2023/01/13 06:57:53;;;;;;;22.13;3.30;;;;;;;;;;5043359;28;20052;-63
2023/01/13 07:00:20;;;;;;;25.48;4.38;;;;;;;;;;5042047;28;20091;-64
2023/01/13 07:02:46;;;;;;;16.52;2.92;;;8.30;99.90;;;;;;5045097;28;20087;-64
2023/01/13 07:05:12;;;;;;;20.98;3.55;;;;;;;;;;5042803;28;20045;-63
2023/01/13 07:07:38;;;;;;;21.67;3.80;;;;;;;;;;5044992;28;20076;-63
2023/01/13 07:10:07;;;;;;;18.10;3.50;;;;;;;;;;5042770;28;20080;-63
2023/01/13 07:15:17;;;;;;;18.15;3.92;;;;;;;;;;5042534;28;20040;-64
2023/01/13 07:15:18;;;;;;;23.63;3.78;;;;;;;;;;5042850;28;20052;-62
2023/01/13 07:17:44;;;;;;;23.63;3.85;;;;;;;;;;5035029;28;20045;-62
2023/01/13 07:20:10;;;;;;;26.33;4.82;;;;;;;;;;5043428;28;20581;-63
2023/01/13 07:22:36;;;;;;;21.17;3.95;;;8.20;99.90;;;;;;5044862;28;20037;-63
2023/01/13 07:25:03;;;;;;;18.58;3.53;;;8.10;99.90;;;;;;5035649;28;20102;-63
2023/01/13 07:27:29;;;;;;;21.10;3.08;;;;;;;;;;5036457;28;20051;-62
2023/01/13 07:29:54;;;;;;;23.52;3.90;;;;;;;;;;5035603;28;20423;-63
2023/01/13 07:32:20;;;;;;;24.75;3.90;;;;;;;;;;5044009;28;20148;-63
2023/01/13 07:34:47;;;;;;;25.90;6.07;;;;;;;;;;5036069;28;20056;-63
2023/01/13 07:37:12;;;;;;;23.23;4.03;;;;;;;;;;5037863;28;20124;-64
2023/01/13 07:39:38;;;;;;;29.90;4.20;;;;;;;;;;5034568;28;20129;-63
2023/01/13 07:44:48;;;;;;;18.77;4.65;;;7.80;99.90;;;;;;5053638;28;20080;-64
2023/01/13 07:47:14;;;;;;;21.20;4.28;;;;;;;;;;5044791;28;20520;-64
2023/01/13 07:49:40;;;;;;;18.60;4.10;;;;;;;;;;5036412;28;20041;-62
2023/01/13 07:52:07;;;;;;;21.23;4.28;;;;;;;;;;5039871;28;20127;-63
2023/01/13 07:54:33;;;;;;;21.17;3.72;;;;;;;;;;5044393;28;20415;-64
2023/01/13 07:56:59;;;;;;;18.60;3.78;;;;;;;;;;5033550;28;20494;-64
2023/01/13 07:59:25;;;;;;;22.58;3.63;;;;;;;;;;5047976;28;20041;-64
2023/01/13 08:01:52;;;;;;;22.92;5.60;;;;;;;;;;5051889;28;20512;-63
2023/01/13 08:04:17;;;;;;;25.88;4.50;;;8.00;99.90;;;;;;5045113;28;20048;-64
2023/01/13 08:06:43;;;;;;;21.30;4.72;;;;;;;;;;5048769;28;20041;-63
2023/01/13 08:09:09;;;;;;;21.98;3.88;;;;;;;;;;5048670;28;20045;-63
2023/01/13 08:11:35;;;;;;;26.25;5.47;;;;;;;;;;5040321;28;20773;-63
2023/01/13 08:14:01;;;;;;;26.17;4.45;;;;;;;;;;5038884;28;20046;-63
2023/01/13 08:16:27;;;;;;;27.52;4.60;;;;;;;;;;5029200;28;20049;-63
2023/01/13 08:18:53;;;;;;;28.38;5.57;;;7.90;99.90;;;;;;5040322;28;20451;-63
2023/01/13 08:21:19;;;;;;;19.77;3.97;;;;;;;;;;5034813;28;20050;-64
2023/01/13 08:23:44;;;;;;;28.05;4.15;;;7.90;99.90;;;;;;5029913;28;20037;-67
2023/01/13 08:26:12;;;;;;;33.03;4.65;;;;;;;;;;5032239;28;20044;-62
2023/01/13 08:28:41;;;;;;;22.77;4.68;;;;;;;;;;5032883;28;20590;-63
2023/01/13 08:31:12;;;;;;;28.67;5.00;;;7.80;99.90;;;;;;5034021;28;20053;-60
2023/01/13 08:33:39;;;;;;;28.13;5.20;;;;;;;;;;5050217;28;20057;-61
2023/01/13 08:36:06;;;;;;;24.65;4.57;;;;;;;;;;5053645;28;20127;-64
2023/01/13 08:38:33;;;;;;;28.15;4.88;;;;;;;;;;5033054;23;20051;-89
2023/01/13 08:40:59;;;;;;;21.33;4.20;;;;;;;;;;5033784;28;20053;-89
2023/01/13 08:43:25;;;;;;;30.33;6.15;;;;;;;;;;5037372;28;20044;-91
2023/01/13 08:45:59;;;;;;;20.92;4.68;;;;;;;;;;5056711;28;20040;-93
2023/01/13 08:48:25;;;;;;;24.35;4.57;;;;;;;;;;5037924;28;20068;-89
2023/01/13 08:50:52;;;;;;;30.23;5.55;;;;;;;;;;5038174;28;20051;-90
2023/01/13 08:53:18;;;;;;;22.77;4.88;;;;;;;;;;5053339;28;20528;-87
2023/01/13 08:55:44;;;;;;;26.13;5.32;;;;;;;;;;5036885;28;20039;-89
2023/01/13 08:58:10;;;;;;;29.20;5.85;;;;;;;;;;5036769;28;20059;-88
2023/01/13 09:00:36;;;;;;;26.00;4.43;;;;;;;;;;5053572;28;20043;-89
2023/01/13 09:03:03;;;;;;;25.92;5.03;;;;;;;;;;5037559;28;20386;-90
2023/01/13 09:05:29;;;;;;;19.92;4.43;;;;;;;;;;5020125;28;20064;-90
2023/01/13 09:07:55;;;;;;;26.33;6.13;;;;;;;;;;5027198;28;20122;-89
2023/01/13 09:10:21;;;;;;;25.98;4.00;;;;;;;;;;5036595;28;20844;-89
2023/01/13 09:15:32;;;;;;;25.52;4.10;;;;;;;;;;5052964;28;20053;-88
2023/01/13 09:17:59;;;;;;;28.95;5.13;;;;;;;;;;5052790;28;20265;-87
2023/01/13 09:20:25;;;;;;;19.80;4.07;;;;;;;;;;5052434;28;20620;-88
2023/01/13 09:22:51;;;;;;;27.13;5.57;;;;;;;;;;5036572;28;20082;-87
2023/01/13 09:25:17;;;;;;;24.13;5.75;;;;;;;;;;5053233;28;20410;-88
2023/01/13 09:27:43;;;;;;;30.52;4.50;;;;;;;;;;5052969;28;20044;-87
2023/01/13 09:30:09;;;;;;;23.23;3.83;;;;;;;;;;5030217;28;20071;-88
2023/01/13 09:32:37;;;;;;;21.02;4.80;;;;;;;;;;5052900;28;20040;-87
2023/01/13 09:35:03;;;;;;;22.52;4.90;;;;;;;;;;5052626;28;20055;-87
2023/01/13 09:37:34;;;;;;;26.52;5.03;;;;;;;;;;5052595;28;20174;-87
2023/01/13 09:40:00;;;;;;;22.90;3.70;;;;;;;;;;5052569;28;20045;-88
2023/01/13 09:45:22;;;;;;;23.30;4.63;;;;;;;;;;5049593;28;20499;-89
2023/01/13 09:48:01;;;;;;;21.02;3.85;;;;;;;;;;5053271;28;20510;-89
2023/01/13 09:50:33;;;;;;;26.25;5.40;;;;;;;;;;5037049;28;20051;-92
2023/01/13 09:53:00;;;;;;;23.50;4.38;;;;;;;;;;5055058;28;20060;-92
2023/01/13 09:55:32;;;;;;;21.38;4.00;;;;;;;;;;5022396;28;20808;-88
2023/01/13 09:57:58;;;;;;;24.88;4.75;;;;;;;;;;5052784;28;20403;-89
2023/01/13 10:00:26;;;;;;;21.98;4.30;;;;;;;;;;5052336;28;20132;-88
2023/01/13 10:02:55;;;;;;;18.70;4.60;;;;;;;;;;5036984;28;20410;-90
2023/01/13 10:05:37;;;;;;;18.15;3.88;;;;;;;;;;5035555;28;20044;-89
2023/01/13 10:08:22;;;;;;;16.17;4.22;;;;;;;;;;5036955;28;20046;-91
2023/01/13 10:10:50;;;;;;;29.37;5.33;;;;;;;;;;5052891;28;20037;-91
2023/01/13 10:13:21;;;;;;;27.55;4.35;;;;;;;;;;5052412;28;21086;-89
2023/01/13 10:16:10;;;;;;;25.02;4.05;;;;;;;;;;5017262;28;20094;-88
2023/01/13 10:18:42;;;;;;;31.70;4.80;;;;;;;;;;5016718;28;20519;-92
2023/01/13 10:21:27;;;;;;;30.50;5.55;;;;;;;;;;5042569;28;20052;-90
2023/01/13 10:23:59;;;;;;;19.20;4.03;;;;;;;;;;5053791;28;20052;-91
2023/01/13 10:26:28;;;;;;;16.42;3.40;;;;;;;;;;5042550;28;20048;-93
2023/01/13 10:28:54;;;;;;;20.25;4.25;;;;;;;;;;5035202;28;20040;-87
2023/01/13 10:31:21;;;;;;;26.95;3.85;;;;;;;;;;5029383;28;20041;-87
2023/01/13 10:33:47;;;;;;;27.52;4.25;;;;;;;;;;5044520;28;20051;-89
2023/01/13 10:36:14;;;;;;;20.42;4.35;;;;;;;;;;5035537;28;20075;-89
2023/01/13 10:38:42;;;;;;;23.52;4.28;;;;;;;;;;5052610;28;20052;-90
2023/01/13 10:41:11;;;;;;;20.67;4.03;;;;;;;;;;5018675;28;20048;-92
2023/01/13 10:43:37;;;;;;;23.90;3.95;;;;;;;;;;5032542;28;20525;-91
2023/01/13 10:46:05;;;;;;;18.92;3.47;;;;;;;;;;5035125;28;20127;-92
2023/01/13 10:48:36;;;;;;;24.67;3.83;;;;;;;;;;5035778;28;20094;-88
2023/01/13 10:51:17;;;;;;;15.45;4.07;;;;;;;;;;5037641;28;20041;-89
2023/01/13 10:53:51;;;;;;;23.05;3.30;;;;;;;;;;5051671;28;20052;-88
2023/01/13 10:56:23;;;;;;;22.63;6.15;;;;;;;;;;5042096;28;20048;-94
2023/01/13 10:58:49;;;;;;;13.07;3.95;;;;;;;;;;5017050;28;20040;-89
2023/01/13 11:01:26;;;;;;;26.42;4.47;;;;;;;;;;5025983;28;20055;-89
2023/01/13 11:03:55;;;;;;;18.58;3.97;;;;;;;;;;5051734;28;20037;-89
2023/01/13 11:06:29;;;;;;;19.02;3.55;;;;;;;;;;5052242;28;20170;-89
2023/01/13 11:09:01;;;;;;;24.35;3.25;;;;;;;;;;5048385;28;20044;-88
2023/01/13 11:11:39;;;;;;;18.88;3.40;;;;;;;;;;5025851;28;20121;-89
2023/01/13 11:14:40;;;;;;;16.85;3.47;;;;;;;;;;5034658;28;20051;-90
2023/01/13 11:17:09;;;;;;;17.25;3.10;;;;;;;;;;5029234;28;20080;-90
2023/01/13 11:19:40;;;;;;;10.30;2.95;;;9.00;99.90;;;;;;5034962;28;20484;-88
2023/01/13 11:22:08;;;;;;;16.40;3.22;;;;;;;;;;5037246;28;20063;-89
2023/01/13 11:24:36;;;;;;;18.35;3.53;;;;;;;;;;5034605;28;20032;-89
2023/01/13 11:27:21;;;;;;;18.98;3.72;;;;;;;;;;5051323;28;20187;-90
2023/01/13 11:29:53;;;;;;;20.98;4.15;;;;;;;;;;5022335;28;20036;-90
2023/01/13 11:32:21;;;;;;;15.90;3.45;;;;;;;;;;5020540;28;20075;-90
2023/01/13 11:34:51;;;;;;;18.35;3.33;;;;;;;;;;5051616;28;20072;-90
2023/01/13 11:37:20;;;;;;;17.10;4.53;;;;;;;;;;5021597;28;20041;-87
2023/01/13 11:39:55;;;;;;;23.58;4.88;;;;;;;;;;5034142;28;20110;-90
2023/01/13 11:42:40;;;;;;;13.73;3.40;;;;;;;;;;5038178;28;20071;-89
2023/01/13 11:45:17;;;;;;;13.48;3.13;;;;;;;;;;5039068;28;20041;-90
2023/01/13 11:47:45;;;;;;;21.00;4.28;;;;;;;;;;5051423;28;20414;-89
2023/01/13 11:50:27;;;;;;;13.45;3.22;;;;;;;;;;5038870;28;20052;-89
2023/01/13 11:52:56;;;;;;;21.52;5.25;;;;;;;;;;5034780;28;20402;-89
2023/01/13 11:55:38;;;;;;;22.77;4.90;;;;;;;;;;5050940;28;20101;-88
2023/01/13 11:58:34;;;;;;;16.02;2.85;;;;;;;;;;5050772;28;20132;-88
2023/01/13 12:01:09;;;;;;;18.20;3.67;;;;;;;;;;5019907;28;20057;-88
2023/01/13 12:03:35;;;;;;;;;;;;;;;;;;5032892;28;20045;-89
2023/01/13 12:06:07;;;;;;;14.65;2.88;;;;;;;;;;5034228;28;19927;-88
2023/01/13 12:08:52;;;;;;;19.33;2.83;;;;;;;;;;5050411;28;20048;-89
2023/01/13 12:11:18;;;;;;;11.32;2.28;;;;;;;;;;5050249;28;20081;-89
2023/01/13 12:14:08;;;;;;;12.18;3.28;;;;;;;;;;5050259;28;20172;-88
2023/01/13 12:16:35;;;;;;;11.73;3.10;;;;;;;;;;5015354;28;20048;-89
2023/01/13 12:19:16;;;;;;;11.98;2.22;;;;;;;;;;5046363;28;20041;-89
2023/01/13 12:22:03;;;;;;;15.45;2.83;;;;;;;;;;5041992;28;20036;-88
2023/01/13 12:24:29;;;;;;;11.52;3.15;;;;;;;;;;5019758;28;20040;-88
2023/01/13 12:27:09;;;;;;;22.08;3.20;;;;;;;;;;5049648;28;20040;-89
2023/01/13 12:29:37;;;;;;;20.40;3.22;;;;;;;;;;5049848;28;20048;-89
2023/01/13 12:32:14;;;;;;;9.13;2.88;;;;;;;;;;5046464;28;20045;-89
2023/01/13 12:34:46;;;;;;;17.00;3.50;;;;;;;;;;5052092;28;20048;-87
2023/01/13 12:37:17;;;;;;;14.85;3.15;;;;;;;;;;5034270;28;20075;-88
2023/01/13 12:40:02;;;;;;;12.48;2.60;;;;;;;;;;5033712;28;20549;-88
2023/01/13 12:45:31;;;;;;;10.35;2.78;;;9.30;99.90;;;;;;5027604;28;20044;-88
2023/01/13 12:47:58;;;;;;;10.40;2.65;;;;;;;;;;5034038;28;20076;-88
2023/01/13 12:50:24;;;;;;;14.90;2.92;;;;;;;;;;5051304;28;20056;-87
2023/01/13 12:52:51;;;;;;;16.02;2.50;;;;;;;;;;5050906;28;20090;-87
2023/01/13 12:55:21;;;;;;;16.17;3.25;;;;;;;;;;5050929;28;20052;-87
2023/01/13 12:58:05;;;;;;;18.20;4.35;;;;;;;;;;5050502;28;20532;-87
2023/01/13 13:00:37;;;;;;;16.38;3.00;;;;;;;;;;5050735;28;20045;-87
2023/01/13 13:03:15;;;;;;;9.63;3.28;;;;;;;;;;5050440;28;20044;-88
2023/01/13 13:05:47;;;;;;;17.33;2.45;;;;;;;;;;5050721;28;20045;-87
2023/01/13 13:08:22;;;;;;;19.05;2.85;;;;;;;;;;5050968;28;20048;-88
2023/01/13 13:13:16;;;;;;;10.00;2.08;;;;;;;;;;5035903;28;20086;-86
2023/01/13 13:13:53;;;;;;;17.80;4.18;;;;;;;;;;5054112;28;20057;-87
2023/01/13 13:16:35;;;;;;;8.25;2.38;;;;;;;;;;5037317;28;20045;-86
2023/01/13 13:19:20;;;;;;;10.23;2.25;;;;;;;;;;5050729;28;20045;-87
2023/01/13 13:22:10;;;;;;;15.70;2.88;;;9.50;99.90;;;;;;5033597;28;20083;-87
2023/01/13 13:24:36;;;;;;;11.07;2.80;;;;;;;;;;5017641;28;20044;-86
2023/01/13 13:27:19;;;;;;;9.25;2.47;;;;;;;;;;5017501;28;20056;-87
2023/01/13 13:30:01;;;;;;;7.43;2.47;;;;;;;;;;5034084;28;20437;-86
2023/01/13 13:32:44;;;;;;;10.18;2.58;;;;;;;;;;5035154;28;20048;-87
2023/01/13 13:35:16;;;;;;;13.18;2.65;;;;;;;;;;5053251;28;20402;-87
2023/01/13 13:46:47;;;;;;;9.13;2.10;;;;;;;;;;5052711;28;20040;-87
2023/01/13 13:49:14;;;;;;;9.77;2.55;;;;;;;;;;5032401;28;20052;-87
2023/01/13 13:51:57;;;;;;;10.32;2.20;;;9.50;99.90;;;;;;5047642;28;20078;-87
2023/01/13 13:54:23;;;;;;;11.65;2.90;;;;;;;;;;5036822;28;20037;-90
2023/01/13 13:56:49;;;;;;;13.18;3.08;;;;;;;;;;5039972;28;20152;-86
2023/01/13 13:59:21;;;;;;;8.73;2.22;;;;;;;;;;5036517;28;20037;-87
2023/01/13 14:01:52;;;;;;;13.80;3.58;;;;;;;;;;5036344;28;20041;-87
2023/01/13 14:04:20;;;;;;;8.95;2.55;;;;;;;;;;5029698;28;20048;-86
2023/01/13 14:07:09;;;;;;;10.52;1.95;;;;;;;;;;5018689;28;20043;-86
2023/01/13 14:09:43;;;;;;;15.57;3.30;;;9.40;99.90;;;;;;5032771;28;20045;-86
2023/01/13 14:12:17;;;;;;;11.77;2.13;;;9.50;99.90;;;;;;5037568;28;20367;-87
2023/01/13 14:14:44;;;;;;;12.98;2.08;;;9.10;99.90;;;;;;5054451;28;20052;-87
2023/01/13 14:17:24;;;;;;;11.15;2.30;;;;;;;;;;5047235;28;20044;-85
2023/01/13 14:19:52;;;;;;;12.55;2.33;;;;;;;;;;5036127;28;20045;-87
2023/01/13 14:22:18;;;;;;;8.90;2.28;;;;;;;;;;5052443;28;20935;-87
2023/01/13 14:24:54;;;;;;;10.02;2.47;;;;;;;;;;5053057;28;20505;-88
2023/01/13 14:27:20;;;;;;;16.15;2.67;;;;;;;;;;5054678;28;20048;-88
2023/01/13 14:29:46;;;;;;;11.35;2.75;;;;;;;;;;5053146;28;20033;-88
2023/01/13 14:32:14;;;;;;;12.02;2.50;;;;;;;;;;5036365;28;20071;-88
2023/01/13 14:34:41;;;;;;;13.88;2.55;;;;;;;;;;5053231;28;20139;-88
2023/01/13 14:37:22;;;;;;;18.73;2.90;;;;;;;;;;5036032;28;20112;-88
2023/01/13 14:39:48;;;;;;;16.08;3.08;;;;;;;;;;5024544;28;20057;-88
2023/01/13 14:42:16;;;;;;;7.72;2.20;;;;;;;;;;5035944;28;20125;-88
2023/01/13 14:44:47;;;;;;;15.98;2.97;;;9.40;99.90;;;;;;5036351;28;20048;-87
2023/01/13 14:47:18;;;;;;;10.70;3.00;;;;;;;;;;5052745;28;20076;-88
2023/01/13 14:49:59;;;;;;;14.45;2.88;;;;;;;;;;5035761;28;20044;-88
2023/01/13 14:52:26;;;;;;;10.90;2.05;;;;;;;;;;5052166;28;20044;-88
2023/01/13 14:55:07;;;;;;;10.32;2.67;;;;;;;;;;5053611;28;20044;-89
2023/01/13 14:57:38;;;;;;;10.38;2.25;;;;;;;;;;5035204;28;20071;-88
2023/01/13 15:00:13;;;;;;;16.67;2.83;;;;;;;;;;5026934;28;20051;-89
2023/01/13 15:02:39;;;;;;;;;;;;;;;;;;5041850;28;20487;-89
2023/01/13 15:05:23;;;;;;;8.25;3.22;;;;;;;;;;5048146;28;19916;-89
2023/01/13 15:07:58;;;;;;;12.25;2.50;;;;;;;;;;5035072;28;20048;-88
2023/01/13 15:10:24;;;;;;;9.65;2.38;;;;;;;;;;5049899;28;20514;-89
2023/01/13 15:12:52;;;;;;;19.50;2.60;;;9.30;99.90;;;;;;5031431;28;20059;-89
2023/01/13 15:15:29;;;;;;;16.65;2.83;;;9.20;99.90;;;;;;5035222;28;20445;-88
2023/01/13 15:17:55;;;;;;;11.05;2.78;;;;;;;;;;5034973;28;20059;-89
2023/01/13 15:20:23;;;;;;;7.30;2.03;;;;;;;;;;5034775;28;20047;-90
2023/01/13 15:22:49;;;;;;;7.45;2.10;;;;;;;;;;5028940;28;20049;-89
2023/01/13 15:25:19;;;;;;;10.77;2.60;;;;;;;;;;5052053;28;20040;-89
2023/01/13 15:27:49;;;;;;;6.35;2.25;;;;;;;;;;5034744;28;20045;-88